Time;durP1;ratioP1;P1;durP2;ratioP2;P2;SDS_P1;SDS_P2;PMS_P1;PMS_P2;Temp;Humidity;BMP_temperature;BMP_pressure;BME280_temperature;BME280_humidity;BME280_pressure;Samples;Min_cycle;Max_cycle;Signal;HPM_P1;HPM_P2
2024/04/12 00:02:11;;;;;;;32.60;22.20;;;;;;;13.20;51.17;101941.81;111511;1252;23048;-70
2024/04/12 00:04:42;;;;;;;25.30;19.20;;;;;;;13.25;51.37;101938.91;111511;1252;21951;-71
2024/04/12 00:07:14;;;;;;;25.20;17.60;;;;;;;13.27;50.80;101937.20;111584;1252;21962;-72
2024/04/12 00:09:52;;;;;;;21.50;16.00;;;;;;;13.29;50.30;101940.10;111498;1252;21948;-71
2024/04/12 00:12:27;;;;;;;25.60;15.30;;;;;;;13.32;49.95;101937.29;111485;1252;22015;-68
2024/04/12 00:15:05;;;;;;;33.00;15.50;;;;;;;13.34;49.44;101936.80;111527;1252;21992;-69
2024/04/12 00:17:34;;;;;;;22.30;13.90;;;;;;;13.35;49.00;101937.83;111543;1252;21951;-68
2024/04/12 00:20:06;;;;;;;22.30;14.40;;;;;;;13.36;48.95;101938.47;111513;1252;22056;-70
2024/04/12 00:22:38;;;;;;;25.50;16.40;;;;;;;13.36;48.86;101935.61;111505;1252;21952;-70
2024/04/12 00:25:07;;;;;;;;;;;;;;;13.36;49.35;101930.85;111338;1252;24263;-68
2024/04/12 00:27:37;;;;;;;22.30;15.00;;;;;;;13.27;49.37;101930.30;111221;1241;24349;-69
2024/04/12 00:30:08;;;;;;;19.90;13.30;;;;;;;13.27;49.14;101929.75;111297;1252;21942;-69
2024/04/12 00:32:42;;;;;;;23.80;13.40;;;;;;;13.29;48.99;101931.80;111561;1252;23013;-69
2024/04/12 00:35:12;;;;;;;20.30;14.10;;;;;;;13.28;49.08;101932.02;111217;1252;22049;-69
2024/04/12 00:37:52;;;;;;;22.60;13.00;;;;;;;13.29;48.91;101927.73;111593;1245;23012;-68
2024/04/12 00:40:23;;;;;;;20.60;14.90;;;;;;;13.28;48.91;101929.55;111286;1252;22539;-68
2024/04/12 00:42:57;;;;;;;21.20;13.90;;;;;;;13.28;49.00;101926.70;111582;1252;21942;-68
2024/04/12 00:45:39;;;;;;;21.30;13.40;;;;;;;13.28;49.08;101920.19;111518;1252;22775;-68
2024/04/12 00:48:09;;;;;;;22.80;13.90;;;;;;;13.28;49.15;101921.60;111574;1247;22761;-70
2024/04/12 00:50:41;;;;;;;19.00;12.60;;;;;;;13.28;48.84;101915.91;111374;1252;21988;-70
2024/04/12 00:53:13;;;;;;;20.10;12.20;;;;;;;13.29;48.92;101918.00;111214;1252;188570;-72
2024/04/12 00:55:42;;;;;;;19.50;12.90;;;;;;;13.29;49.07;101919.55;111576;1252;21950;-70
2024/04/12 00:58:11;;;;;;;19.50;13.30;;;;;;;13.30;49.07;101915.46;111489;1252;22353;-71
2024/04/12 01:00:46;;;;;;;22.50;14.20;;;;;;;13.29;49.37;101911.08;111290;1252;23681;-70
2024/04/12 01:03:18;;;;;;;21.90;13.60;;;;;;;13.27;49.36;101908.41;111232;1252;23038;-72
2024/04/12 01:05:50;;;;;;;19.70;13.60;;;;;;;13.25;49.36;101903.17;111583;1252;22438;-69
2024/04/12 01:08:19;;;;;;;18.30;13.80;;;;;;;13.24;49.47;101904.45;111409;1252;23067;-69
2024/04/12 01:10:47;;;;;;;19.20;13.40;;;;;;;13.23;49.39;101904.86;111508;1252;22434;-72
2024/04/12 01:13:17;;;;;;;17.90;12.80;;;;;;;13.24;49.47;101903.06;111419;1252;21950;-70
2024/04/12 01:15:47;;;;;;;18.00;12.90;;;;;;;13.23;49.61;101903.63;111481;1252;23060;-70
2024/04/12 01:18:15;;;;;;;17.30;11.70;;;;;;;13.21;49.61;101905.66;111519;1252;21949;-69
2024/04/12 01:20:45;;;;;;;18.20;12.80;;;;;;;13.19;49.67;101904.02;111511;1252;23703;-69
2024/04/12 01:23:16;;;;;;;17.60;12.80;;;;;;;13.17;49.69;101902.56;111588;1252;21954;-69
2024/04/12 01:25:47;;;;;;;18.80;13.10;;;;;;;13.15;49.52;101905.66;111542;1252;23025;-70
2024/04/12 01:28:16;;;;;;;16.40;11.30;;;;;;;13.12;49.76;101909.04;111506;1252;21949;-70
2024/04/12 01:30:46;;;;;;;19.40;13.00;;;;;;;13.08;49.54;101907.11;111578;1252;22660;-68
2024/04/12 01:33:16;;;;;;;16.30;11.40;;;;;;;13.05;49.85;101908.36;111483;1252;23679;-69
2024/04/12 01:35:45;;;;;;;16.50;11.60;;;;;;;13.01;49.91;101905.89;111440;1252;23493;-69
2024/04/12 01:38:17;;;;;;;17.00;11.70;;;;;;;13.00;49.79;101908.29;111500;1252;22835;-68
2024/04/12 01:40:56;;;;;;;13.90;10.90;;;;;;;12.96;49.92;101906.00;111568;1252;21954;-69
2024/04/12 01:43:31;;;;;;;17.60;11.60;;;;;;;12.94;50.04;101904.72;111440;1252;21942;-70
2024/04/12 01:46:00;;;;;;;19.40;12.20;;;;;;;12.92;50.07;101904.26;111484;1252;23685;-70
2024/04/12 01:48:28;;;;;;;16.30;12.00;;;;;;;12.91;50.21;101904.66;111499;1252;23058;-71
2024/04/12 01:51:01;;;;;;;20.10;11.90;;;;;;;12.89;50.12;101908.34;111563;1252;23730;-71
2024/04/12 01:53:38;;;;;;;18.00;12.90;;;;;;;12.87;50.35;101914.08;111542;1252;23861;-72
2024/04/12 01:56:09;;;;;;;15.70;13.90;;;;;;;12.86;50.53;101908.34;111370;1252;23601;-71
2024/04/12 01:58:39;;;;;;;18.60;14.30;;;;;;;12.84;50.49;101910.23;111559;1252;23901;-72
2024/04/12 02:01:11;;;;;;;23.50;15.80;;;;;;;12.81;50.83;101909.33;111541;1252;22011;-72
2024/04/12 02:03:40;;;;;;;17.20;13.70;;;;;;;12.79;50.91;101904.84;111582;1252;22746;-70
2024/04/12 02:06:09;;;;;;;20.50;14.90;;;;;;;12.78;50.75;101910.22;111509;1252;23592;-69
2024/04/12 02:08:38;;;;;;;19.60;14.10;;;;;;;12.77;50.92;101910.77;111525;1252;21948;-70
2024/04/12 02:11:08;;;;;;;19.30;12.30;;;;;;;12.77;51.12;101909.49;111495;1252;22440;-71
2024/04/12 02:13:37;;;;;;;18.30;12.30;;;;;;;12.77;51.40;101905.30;111587;1245;23652;-71
2024/04/12 02:16:10;;;;;;;16.90;12.10;;;;;;;12.76;51.42;101906.41;111485;1252;23510;-70
2024/04/12 02:18:44;;;;;;;15.40;11.00;;;;;;;12.76;51.50;101910.63;111517;1252;22313;-73
2024/04/12 02:21:13;;;;;;;14.30;10.90;;;;;;;12.77;51.50;101913.42;111520;1252;21960;-69
2024/04/12 02:23:43;;;;;;;20.60;12.10;;;;;;;12.78;51.48;101912.86;111510;1252;21972;-68
2024/04/12 02:26:12;;;;;;;21.70;13.00;;;;;;;12.77;51.57;101911.83;111179;1248;23089;-69
2024/04/12 02:28:43;;;;;;;18.90;12.00;;;;;;;12.75;51.55;101917.09;111171;1252;23729;-69
2024/04/12 02:31:12;;;;;;;20.40;12.60;;;;;;;12.72;51.50;101918.62;111535;1252;21957;-68
2024/04/12 02:33:42;;;;;;;19.20;11.80;;;;;;;12.70;51.43;101919.96;111590;1251;21949;-69
2024/04/12 02:36:11;;;;;;;17.50;12.30;;;;;;;12.69;51.84;101921.10;111681;1252;23602;-69
2024/04/12 02:38:49;;;;;;;16.70;12.50;;;;;;;12.67;51.94;101921.06;111585;1252;22047;-68
2024/04/12 02:41:20;;;;;;;18.50;11.30;;;;;;;12.64;52.03;101922.26;111557;1252;23592;-70
2024/04/12 02:43:52;;;;;;;17.30;12.10;;;;;;;12.62;52.05;101921.63;111477;1252;21965;-70
2024/04/12 02:46:24;;;;;;;16.80;11.40;;;;;;;12.61;52.12;101918.50;111645;1252;23592;-70
2024/04/12 02:48:54;;;;;;;17.90;11.20;;;;;;;12.60;52.32;101912.74;111343;1252;23041;-71
2024/04/12 02:51:23;;;;;;;16.10;10.80;;;;;;;12.60;52.15;101915.59;111546;1252;22004;-71
2024/04/12 02:53:57;;;;;;;15.30;11.10;;;;;;;12.60;52.25;101914.33;111517;1252;21955;-70
2024/04/12 02:56:27;;;;;;;15.30;11.60;;;;;;;12.60;52.43;101913.48;111564;1252;23050;-71
2024/04/12 02:58:58;;;;;;;18.60;10.80;;;;;;;12.59;52.45;101914.95;111485;1252;21972;-70
2024/04/12 03:01:26;;;;;;;17.80;12.60;;;;;;;12.57;52.45;101921.23;111518;1239;21996;-68
2024/04/12 03:03:58;;;;;;;16.30;10.80;;;;;;;12.55;52.30;101921.33;111492;1252;23775;-70
2024/04/12 03:06:32;;;;;;;15.40;10.90;;;;;;;12.51;52.47;101921.86;111256;1252;22067;-71
2024/04/12 03:09:02;;;;;;;16.60;11.80;;;;;;;12.47;52.63;101921.52;111505;1252;22716;-71
2024/04/12 03:11:35;;;;;;;14.20;11.50;;;;;;;12.44;53.19;101922.95;111573;1252;22941;-68
2024/04/12 03:14:15;;;;;;;16.80;10.50;;;;;;;12.41;53.23;101924.90;111485;1252;21942;-71
2024/04/12 03:16:46;;;;;;;16.10;12.50;;;;;;;12.36;52.93;101923.90;111546;1252;21962;-70
2024/04/12 03:19:15;;;;;;;15.80;11.70;;;;;;;12.31;53.21;101919.04;111508;1252;21961;-68
2024/04/12 03:21:50;;;;;;;15.70;9.70;;;;;;;12.29;53.48;101917.77;111545;1252;21966;-69
2024/04/12 03:24:20;;;;;;;19.90;11.90;;;;;;;12.26;53.78;101919.30;111490;1252;22574;-72
2024/04/12 03:26:49;;;;;;;32.40;19.10;;;;;;;12.24;54.38;101925.61;111440;1252;22813;-72
2024/04/12 03:29:18;;;;;;;30.50;16.80;;;;;;;12.20;54.88;101925.46;111526;1252;23111;-69
2024/04/12 03:31:48;;;;;;;27.50;15.60;;;;;;;12.15;55.05;101925.34;111555;1252;22756;-69
2024/04/12 03:34:17;;;;;;;31.60;18.60;;;;;;;12.08;55.64;101923.77;111622;1252;21949;-69
2024/04/12 03:41:58;;;;;;;26.60;15.80;;;;;;;11.78;56.27;101924.41;111529;1252;21966;-69
2024/04/12 03:44:30;;;;;;;25.20;15.50;;;;;;;11.73;56.37;101920.55;111336;1252;22046;-70
2024/04/12 03:47:10;;;;;;;34.50;15.90;;;;;;;11.71;56.54;101921.35;111537;1252;22160;-69
2024/04/12 03:49:41;;;;;;;21.00;14.70;;;;;;;11.68;56.98;101916.59;111313;1252;23009;-69
2024/04/12 03:52:13;;;;;;;29.60;16.50;;;;;;;11.65;57.15;101914.29;111491;1252;22191;-72
2024/04/12 03:54:45;;;;;;;40.70;26.50;;;;;;;11.59;57.40;101909.63;111261;1252;21963;-73
2024/04/12 03:57:16;;;;;;;41.10;23.80;;;;;;;11.54;57.72;101909.16;111471;1252;23791;-70
2024/04/12 03:59:45;;;;;;;38.40;22.30;;;;;;;11.49;57.83;101913.28;111440;1252;23053;-71
2024/04/12 04:02:18;;;;;;;32.40;17.30;;;;;;;11.45;58.19;101916.30;111458;1252;21968;-73
2024/04/12 04:04:48;;;;;;;29.00;19.50;;;;;;;11.41;58.59;101909.41;111493;1252;23026;-69
2024/04/12 04:07:19;;;;;;;19.90;15.80;;;;;;;11.37;58.89;101906.63;111503;1252;22017;-71
2024/04/12 04:09:49;;;;;;;24.30;16.80;;;;;;;11.30;58.95;101902.05;111494;1252;23102;-73
2024/04/12 04:12:18;;;;;;;24.10;15.90;;;;;;;11.24;59.16;101903.76;111494;1252;24416;-71
2024/04/12 04:14:50;;;;;;;20.90;15.80;;;;;;;11.20;58.98;101902.36;111459;1252;23781;-71
2024/04/12 04:17:29;;;;;;;24.80;16.80;;;;;;;11.19;59.33;101903.09;111604;1252;23683;-70
2024/04/12 04:20:06;;;;;;;25.60;16.80;;;;;;;11.23;59.43;101902.76;111318;1252;22301;-69
2024/04/12 04:25:10;;;;;;;21.10;17.60;;;;;;;11.29;59.53;101896.26;111463;1252;22128;-68
2024/04/12 04:27:39;;;;;;;29.40;21.90;;;;;;;11.34;59.68;101895.32;111607;1252;23473;-71
2024/04/12 04:30:11;;;;;;;31.30;20.80;;;;;;;11.41;59.72;101897.09;111552;1252;21952;-68
2024/04/12 04:32:40;;;;;;;34.10;20.80;;;;;;;11.48;59.51;101896.95;111313;1252;21958;-69
2024/04/12 04:35:09;;;;;;;27.50;19.30;;;;;;;11.54;59.52;101897.73;111503;1252;22822;-68
2024/04/12 04:37:39;;;;;;;29.90;18.90;;;;;;;11.58;59.70;101899.11;111590;1250;21971;-69
2024/04/12 04:40:19;;;;;;;32.00;19.10;;;;;;;11.62;59.48;101901.90;111308;1252;22305;-69
2024/04/12 04:42:49;;;;;;;31.10;18.40;;;;;;;11.66;59.54;101904.52;111318;1252;23584;-69
2024/04/12 04:45:21;;;;;;;35.40;20.40;;;;;;;11.70;59.53;101905.91;111520;1252;21998;-68
2024/04/12 04:47:50;;;;;;;26.00;18.60;;;;;;;11.74;59.15;101908.85;111454;1239;23014;-68
2024/04/12 04:50:20;;;;;;;31.00;18.20;;;;;;;11.80;59.13;101907.54;111258;1252;22305;-71
2024/04/12 04:52:51;;;;;;;25.60;18.00;;;;;;;11.84;58.91;101912.98;111268;1252;22242;-71
2024/04/12 04:55:20;;;;;;;25.10;17.80;;;;;;;11.91;59.10;101916.14;111492;1252;21993;-69
2024/04/12 04:57:54;;;;;;;31.10;17.50;;;;;;;12.00;59.02;101918.35;111253;1252;21952;-69
2024/04/12 05:00:28;;;;;;;39.40;19.90;;;;;;;12.11;59.00;101924.36;111521;1252;22738;-69
2024/04/12 05:02:56;;;;;;;29.40;17.90;;;;;;;12.20;58.85;101928.80;111491;1252;21951;-68
2024/04/12 05:05:27;;;;;;;38.60;18.90;;;;;;;12.29;58.84;101936.65;111552;1252;21987;-67
2024/04/12 05:07:58;;;;;;;;;;;;;;;12.37;58.89;101938.32;111282;1252;22066;-69
2024/04/12 05:10:33;;;;;;;34.40;19.30;;;;;;;12.39;59.06;101939.12;111266;1252;21943;-69
2024/04/12 05:13:05;;;;;;;32.20;17.50;;;;;;;12.52;58.64;101940.73;111100;1247;21952;-69
2024/04/12 05:18:14;;;;;;;41.30;18.40;;;;;;;12.74;57.14;101942.75;111286;1252;24514;-68
2024/04/12 05:20:47;;;;;;;28.90;12.70;;;;;;;12.82;55.85;101940.20;111259;1252;21952;-69
2024/04/12 05:23:17;;;;;;;20.90;11.60;;;;;;;12.90;54.98;101942.90;111520;1252;21962;-69
2024/04/12 05:25:48;;;;;;;17.00;9.00;;;;;;;13.00;54.36;101943.83;111244;1252;21954;-68
2024/04/12 05:28:19;;;;;;;15.10;9.80;;;;;;;13.10;53.93;101946.28;111574;1252;23003;-71
2024/04/12 05:30:50;;;;;;;20.70;9.40;;;;;;;13.18;53.45;101946.86;111537;1251;22046;-70
2024/04/12 05:33:22;;;;;;;14.70;8.60;;;;;;;13.26;53.22;101949.29;111523;1252;24947;-69
2024/04/12 05:35:53;;;;;;;20.40;10.30;;;;;;;13.35;53.04;101948.62;111310;1252;22019;-70
2024/04/12 05:38:23;;;;;;;18.10;9.30;;;;;;;13.43;52.60;101944.09;111498;1252;23017;-68
2024/04/12 05:40:52;;;;;;;20.40;11.10;;;;;;;13.53;52.29;101949.73;111499;1252;21961;-70
2024/04/12 05:43:23;;;;;;;13.30;8.10;;;;;;;13.64;52.01;101951.58;111538;1252;21948;-68
2024/04/12 05:45:53;;;;;;;29.80;11.10;;;;;;;13.76;51.67;101947.88;111522;1252;21942;-68
2024/04/12 05:48:26;;;;;;;16.20;9.20;;;;;;;13.88;51.57;101951.05;111268;1252;21930;-69
2024/04/12 05:50:56;;;;;;;10.50;7.60;;;;;;;14.05;51.42;101956.61;111498;1252;22060;-69
2024/04/12 05:53:30;;;;;;;18.50;9.20;;;;;;;14.21;50.84;101956.73;111558;1252;23569;-68
2024/04/12 05:58:53;;;;;;;20.30;7.80;;;;;;;14.54;50.03;101960.63;111492;1252;22586;-69
2024/04/12 06:01:24;;;;;;;13.90;8.10;;;;;;;14.68;49.71;101967.20;111447;1252;23455;-69
2024/04/12 06:03:55;;;;;;;12.40;7.80;;;;;;;14.76;49.38;101971.31;111504;1252;21948;-69
2024/04/12 06:06:24;;;;;;;16.30;8.20;;;;;;;14.84;49.15;101969.95;111526;1241;22886;-69
2024/04/12 06:08:54;;;;;;;11.80;7.60;;;;;;;14.92;49.15;101970.48;111526;1252;21962;-68
2024/04/12 06:11:25;;;;;;;14.10;8.30;;;;;;;15.02;48.98;101970.39;111553;1252;21951;-67
2024/04/12 06:13:54;;;;;;;17.40;10.10;;;;;;;15.13;49.04;101970.09;111304;1252;21953;-69
2024/04/12 06:16:24;;;;;;;19.90;9.40;;;;;;;15.25;48.88;101972.70;111281;1252;24062;-71
2024/04/12 06:18:58;;;;;;;22.40;8.80;;;;;;;15.35;48.47;101973.46;111351;1252;23014;-69
2024/04/12 06:21:30;;;;;;;12.60;7.20;;;;;;;15.39;47.86;101978.48;111561;1252;21955;-68
2024/04/12 06:24:00;;;;;;;13.40;7.10;;;;;;;15.39;47.67;101976.16;111261;1250;23598;-68
2024/04/12 06:26:29;;;;;;;12.40;6.60;;;;;;;15.39;47.80;101975.83;111565;1252;22428;-69
2024/04/12 06:29:05;;;;;;;12.90;7.20;;;;;;;15.40;47.92;101976.13;111508;1252;21961;-69
2024/04/12 06:31:37;;;;;;;11.00;6.30;;;;;;;15.44;47.98;101971.98;111520;1252;23065;-68
2024/04/12 06:34:06;;;;;;;14.90;6.30;;;;;;;15.50;47.93;101966.98;111450;1251;22090;-68
2024/04/12 06:36:35;;;;;;;14.10;6.80;;;;;;;15.55;47.50;101965.27;111343;1252;21952;-69
2024/04/12 06:39:04;;;;;;;15.80;7.30;;;;;;;15.59;47.18;101963.56;111284;1252;21967;-70
2024/04/12 06:41:34;;;;;;;12.20;6.60;;;;;;;15.64;47.20;101964.83;111511;1252;22779;-70
2024/04/12 06:44:03;;;;;;;9.80;5.30;;;;;;;15.67;46.48;101961.46;111491;1252;22868;-70
2024/04/12 06:46:35;;;;;;;10.90;6.10;;;;;;;15.65;45.99;101959.27;111486;1252;22420;-70
2024/04/12 06:49:07;;;;;;;18.20;5.70;;;;;;;15.65;46.26;101956.63;111513;1252;22821;-71
2024/04/12 06:51:44;;;;;;;16.10;6.60;;;;;;;15.73;47.02;101961.98;111508;1252;23601;-66
2024/04/12 06:54:12;;;;;;;10.90;6.60;;;;;;;15.83;47.76;101957.39;111370;1252;22730;-72
2024/04/12 06:56:41;;;;;;;10.50;6.30;;;;;;;15.91;47.16;101958.63;111504;1252;22885;-71
2024/04/12 06:59:13;;;;;;;12.00;6.90;;;;;;;15.92;46.48;101959.77;111306;1252;23715;-69
2024/04/12 07:01:43;;;;;;;16.70;7.40;;;;;;;15.93;46.54;101963.42;111535;1252;22532;-71
2024/04/12 07:04:12;;;;;;;13.60;6.70;;;;;;;15.96;46.16;101963.83;111265;1239;21989;-75
2024/04/12 07:06:42;;;;;;;15.40;6.70;;;;;;;15.94;45.99;101963.17;111519;1252;21956;-72
2024/04/12 07:09:11;;;;;;;21.60;6.80;;;;;;;15.96;46.02;101964.31;111518;1252;23598;-66
2024/04/12 07:11:40;;;;;;;16.30;7.10;;;;;;;16.00;46.10;101962.11;111234;1251;21953;-67
2024/04/12 07:14:09;;;;;;;15.30;6.20;;;;;;;16.03;45.96;101964.80;111535;1252;21971;-67
2024/04/12 07:16:38;;;;;;;12.50;6.10;;;;;;;16.02;45.68;101966.95;111506;1252;23672;-65
2024/04/12 07:19:09;;;;;;;11.40;6.00;;;;;;;15.98;45.95;101965.27;111263;1252;21947;-65
2024/04/12 07:21:38;;;;;;;11.70;5.80;;;;;;;15.91;46.00;101963.75;111286;1252;21967;-64
2024/04/12 07:24:07;;;;;;;9.80;6.00;;;;;;;15.88;46.17;101962.89;111246;1252;21952;-64
2024/04/12 07:26:37;;;;;;;15.00;6.60;;;;;;;15.87;46.41;101964.58;111308;1252;21965;-67
2024/04/12 07:29:06;;;;;;;14.80;6.40;;;;;;;15.85;47.06;101966.98;111294;1252;21964;-64
2024/04/12 07:31:36;;;;;;;21.50;6.50;;;;;;;15.82;47.00;101972.55;111041;1252;23566;-64
2024/04/12 07:34:06;;;;;;;14.00;6.80;;;;;;;15.82;47.17;101971.84;111285;1252;21973;-64
2024/04/12 07:36:37;;;;;;;9.90;5.50;;;;;;;15.82;47.16;101972.20;111296;1252;21952;-64
2024/04/12 07:39:15;;;;;;;17.90;7.00;;;;;;;15.80;46.77;101974.45;111315;1252;21949;-64
2024/04/12 07:41:48;;;;;;;7.20;5.40;;;;;;;15.77;46.80;101977.13;111204;1252;21999;-63
2024/04/12 07:44:17;;;;;;;15.10;6.00;;;;;;;15.73;46.78;101974.01;111227;1251;21948;-62
2024/04/12 07:46:49;;;;;;;11.60;6.60;;;;;;;15.72;46.87;101973.75;111254;1252;21955;-66
2024/04/12 07:49:19;;;;;;;12.00;6.20;;;;;;;15.70;46.96;101975.64;111271;1252;21992;-64
2024/04/12 07:51:49;;;;;;;8.90;6.00;;;;;;;15.72;47.67;101979.41;111324;1252;21963;-67
2024/04/12 07:54:18;;;;;;;11.80;6.50;;;;;;;15.72;47.37;101978.14;111141;1252;23093;-65
2024/04/12 07:57:07;;;;;;;13.80;6.90;;;;;;;15.71;47.65;101980.92;111260;1251;21949;-64
2024/04/12 07:59:39;;;;;;;14.50;5.90;;;;;;;15.70;48.11;101976.16;111304;1252;21950;-63
2024/04/12 08:02:17;;;;;;;14.30;6.50;;;;;;;15.73;48.13;101972.81;111226;1252;21956;-64
2024/04/12 08:04:48;;;;;;;9.10;6.70;;;;;;;15.74;47.84;101979.30;111308;1252;23025;-65
2024/04/12 08:07:19;;;;;;;8.10;5.50;;;;;;;15.77;47.92;101981.61;111269;1252;21944;-65
2024/04/12 08:10:09;;;;;;;13.30;6.00;;;;;;;15.73;47.63;101980.20;111248;1252;23102;-64
2024/04/12 08:12:37;;;;;;;8.00;5.50;;;;;;;15.71;47.71;101975.77;111404;1252;21952;-64
2024/04/12 08:15:06;;;;;;;11.10;6.00;;;;;;;15.73;47.92;101974.75;111222;1252;21956;-66
2024/04/12 08:17:48;;;;;;;11.10;6.50;;;;;;;15.72;47.43;101978.16;111208;1252;21950;-63
2024/04/12 08:20:25;;;;;;;11.10;6.40;;;;;;;15.65;47.13;101973.15;111290;1252;21973;-64
2024/04/12 08:22:54;;;;;;;11.40;7.10;;;;;;;15.58;47.33;101972.65;111295;1252;21948;-62
2024/04/12 08:25:26;;;;;;;14.00;6.80;;;;;;;15.59;47.83;101969.08;111400;1252;21961;-63
2024/04/12 08:27:56;;;;;;;12.90;7.80;;;;;;;15.62;47.87;101964.77;111227;1252;21952;-63
2024/04/12 08:30:28;;;;;;;15.10;7.40;;;;;;;15.69;47.68;101966.33;111275;1252;23474;-63
2024/04/12 08:33:02;;;;;;;12.20;6.30;;;;;;;15.74;47.61;101967.23;111236;1252;22943;-63
2024/04/12 08:35:36;;;;;;;12.80;5.70;;;;;;;15.76;47.49;101970.10;111367;1251;21960;-62
2024/04/12 08:38:12;;;;;;;14.30;6.80;;;;;;;15.78;47.24;101971.73;111352;1252;21962;-64
2024/04/12 08:40:44;;;;;;;11.80;6.20;;;;;;;15.81;47.87;101971.17;111290;1252;21949;-65
2024/04/12 08:43:18;;;;;;;13.10;5.80;;;;;;;15.82;47.18;101965.97;111301;1252;22046;-63
2024/04/12 08:45:58;;;;;;;11.90;6.00;;;;;;;15.81;47.28;101966.73;111027;1252;21951;-67
2024/04/12 08:48:27;;;;;;;10.80;6.00;;;;;;;15.81;47.19;101958.56;111729;1252;21959;-63
2024/04/12 08:51:04;;;;;;;12.50;6.20;;;;;;;15.80;46.74;101963.29;111228;1252;22947;-64
2024/04/12 08:53:34;;;;;;;14.80;5.80;;;;;;;15.74;46.94;101968.44;111097;1252;21951;-63
2024/04/12 08:56:04;;;;;;;12.40;5.40;;;;;;;15.75;47.18;101962.34;111066;1252;21948;-65
2024/04/12 08:58:32;;;;;;;12.80;5.30;;;;;;;15.78;47.00;101959.87;111143;1252;21972;-65
2024/04/12 09:01:06;;;;;;;11.60;5.50;;;;;;;15.80;46.87;101958.30;111025;1252;22514;-64
2024/04/12 09:03:40;;;;;;;14.50;6.00;;;;;;;15.81;47.03;101956.42;111092;1251;21950;-66
2024/04/12 09:06:14;;;;;;;8.50;5.00;;;;;;;15.84;46.87;101956.58;111076;1252;24325;-63
2024/04/12 09:08:44;;;;;;;7.50;4.30;;;;;;;15.88;46.77;101957.92;111057;1252;21968;-64
2024/04/12 09:11:13;;;;;;;21.90;4.90;;;;;;;15.94;47.16;101957.84;111251;1252;24377;-63
2024/04/12 09:13:46;;;;;;;14.30;5.80;;;;;;;15.96;46.53;101956.66;111085;1252;21988;-62
2024/04/12 09:16:19;;;;;;;11.90;5.40;;;;;;;15.96;46.28;101953.29;111254;1252;24094;-63
2024/04/12 09:18:51;;;;;;;14.30;6.20;;;;;;;16.02;46.50;101955.37;111368;1252;24186;-63
2024/04/12 09:21:24;;;;;;;9.70;5.10;;;;;;;16.11;46.47;101955.29;111277;1252;21959;-64
2024/04/12 09:23:58;;;;;;;13.60;5.70;;;;;;;16.15;46.23;101951.70;111305;1252;22640;-62
2024/04/12 09:26:39;;;;;;;12.40;5.10;;;;;;;16.17;46.42;101954.00;110443;1260;21967;-63
2024/04/12 09:29:10;;;;;;;10.30;4.30;;;;;;;16.23;46.81;101951.98;110426;1256;21961;-63
2024/04/12 09:34:35;;;;;;;10.40;4.60;;;;;;;16.36;47.11;101948.64;110398;1260;23662;-62
2024/04/12 09:37:29;;;;;;;10.30;6.30;;;;;;;16.42;46.89;101948.89;110348;1248;23175;-64
2024/04/12 09:42:50;;;;;;;15.50;6.40;;;;;;;16.58;47.30;101952.42;110403;1260;21970;-64
2024/04/12 09:45:21;;;;;;;11.50;5.70;;;;;;;16.68;47.09;101954.77;110935;1252;21955;-64
2024/04/12 10:39:00;;;;;;;9.00;4.20;;;;;;;17.61;47.74;101924.73;111216;1252;21970;-63
2024/04/12 10:41:35;;;;;;;6.50;4.00;;;;;;;17.57;47.79;101922.70;111306;1252;21958;-63
2024/04/12 10:44:05;;;;;;;10.10;4.30;;;;;;;17.51;48.06;101924.95;111283;1252;23686;-63
2024/04/12 10:46:33;;;;;;;10.60;4.10;;;;;;;17.46;48.31;101920.17;111320;1252;21960;-65
2024/04/12 10:49:03;;;;;;;9.70;4.50;;;;;;;17.46;48.73;101918.20;111346;1252;21970;-64
2024/04/12 10:51:39;;;;;;;8.10;4.70;;;;;;;17.48;48.64;101914.84;111289;1252;21953;-64
2024/04/12 10:54:23;;;;;;;7.60;4.70;;;;;;;17.47;48.49;101913.65;111170;1252;21994;-67
2024/04/12 10:56:53;;;;;;;8.80;4.20;;;;;;;17.44;48.70;101909.24;111251;1252;21953;-66
2024/04/12 10:59:28;;;;;;;10.80;3.80;;;;;;;17.46;48.85;101905.05;111287;1252;21955;-65
2024/04/12 11:01:59;;;;;;;9.90;4.40;;;;;;;17.47;48.93;101899.93;111325;1252;21955;-66
2024/04/12 11:04:34;;;;;;;6.10;3.60;;;;;;;17.47;48.89;101896.52;111185;1241;24386;-65
2024/04/12 11:07:07;;;;;;;4.50;3.20;;;;;;;17.55;49.10;101893.31;111281;1252;23090;-63
2024/04/12 11:09:43;;;;;;;7.50;3.70;;;;;;;17.57;48.96;101890.70;111317;1252;21981;-66
2024/04/12 11:12:16;;;;;;;7.50;3.50;;;;;;;17.47;48.96;101891.92;111226;1252;23006;-66
2024/04/12 11:14:50;;;;;;;6.00;3.00;;;;;;;17.41;49.29;101891.81;111244;1252;23570;-64
2024/04/12 11:31:28;;;;;;;8.00;3.60;;;;;;;17.57;49.35;101879.58;111273;1252;21995;-67
2024/04/12 11:33:58;;;;;;;11.30;4.10;;;;;;;17.61;49.54;101881.05;111282;1252;21987;-72
2024/04/12 11:36:39;;;;;;;11.70;4.20;;;;;;;17.64;49.55;101881.90;111513;1252;23101;-68
2024/04/12 11:39:23;;;;;;;16.80;4.00;;;;;;;17.63;49.48;101877.40;111181;1252;21955;-68
2024/04/12 11:41:55;;;;;;;6.60;3.70;;;;;;;17.69;49.65;101874.45;111552;1252;23601;-67
2024/04/12 11:44:24;;;;;;;7.30;3.70;;;;;;;17.77;49.44;101870.46;111311;1247;22926;-67
2024/04/12 11:46:56;;;;;;;5.90;4.20;;;;;;;17.88;49.39;101862.64;111293;1252;22039;-67
2024/04/12 11:49:25;;;;;;;5.60;4.30;;;;;;;18.03;49.25;101859.88;111357;1252;21953;-67
2024/04/12 11:51:57;;;;;;;5.10;3.90;;;;;;;18.22;48.94;101852.21;111217;1252;23424;-66
2024/04/12 11:54:30;;;;;;;9.90;4.00;;;;;;;18.40;48.77;101841.85;111349;1252;21952;-66
2024/04/12 11:57:00;;;;;;;6.50;4.60;;;;;;;18.55;48.22;101837.48;111260;1252;21953;-66
2024/04/12 11:59:31;;;;;;;12.00;4.60;;;;;;;18.66;48.17;101833.33;111375;1252;21969;-67
2024/04/12 12:02:04;;;;;;;8.50;4.40;;;;;;;18.75;47.73;101825.27;111268;1252;24406;-67
2024/04/12 12:04:33;;;;;;;7.00;5.10;;;;;;;18.79;47.69;101818.00;111302;1252;23591;-65
2024/04/12 12:07:04;;;;;;;8.50;4.70;;;;;;;18.84;47.52;101816.89;111542;1249;23595;-66
2024/04/12 12:09:36;;;;;;;10.00;4.10;;;;;;;18.85;47.79;101814.84;111290;1252;21955;-66
2024/04/12 12:12:10;;;;;;;5.00;4.10;;;;;;;18.91;47.52;101814.73;111237;1252;23781;-66
2024/04/12 12:14:41;;;;;;;7.30;4.70;;;;;;;19.02;47.06;101809.59;111548;1246;22551;-67
2024/04/12 12:17:16;;;;;;;8.40;5.30;;;;;;;19.06;46.57;101805.09;111245;1252;21957;-66
2024/04/12 12:19:47;;;;;;;6.90;4.30;;;;;;;19.07;46.69;101799.86;111262;1252;22043;-66
2024/04/12 12:22:18;;;;;;;7.30;5.20;;;;;;;19.11;46.69;101797.42;111277;1252;22641;-66
2024/04/12 12:24:47;;;;;;;7.90;4.80;;;;;;;19.15;46.99;101793.31;111047;1253;21958;-65
2024/04/12 12:27:21;;;;;;;11.60;5.30;;;;;;;19.21;46.89;101789.06;111202;1253;24380;-67
2024/04/12 12:29:54;;;;;;;9.00;4.90;;;;;;;19.27;46.45;101788.88;111006;1253;22053;-67
2024/04/12 12:32:31;;;;;;;8.50;5.20;;;;;;;19.27;46.37;101785.17;111025;1253;22375;-67
2024/04/12 12:35:00;;;;;;;8.70;5.30;;;;;;;19.27;46.30;101780.69;111033;1253;23608;-67
2024/04/12 12:37:29;;;;;;;6.80;5.20;;;;;;;19.28;46.44;101774.72;111130;1253;23605;-66
2024/04/12 12:39:59;;;;;;;10.50;4.70;;;;;;;19.32;46.64;101769.01;111000;1253;22718;-68
2024/04/12 12:42:31;;;;;;;5.00;4.40;;;;;;;19.41;46.41;101765.41;111043;1253;21959;-65
2024/04/12 12:45:01;;;;;;;8.40;4.80;;;;;;;19.43;46.07;101762.88;111113;1248;23573;-67
2024/04/12 12:47:31;;;;;;;6.30;4.60;;;;;;;19.42;46.04;101757.65;111039;1253;23357;-68
2024/04/12 12:50:02;;;;;;;6.10;4.90;;;;;;;19.42;46.12;101752.05;111100;1253;23698;-64
2024/04/12 12:52:32;;;;;;;6.50;5.80;;;;;;;19.42;45.89;101744.73;111226;1253;175096;-65